Time;durP1;ratioP1;P1;durP2;ratioP2;P2;SDS_P1;SDS_P2;PMS_P1;PMS_P2;Temp;Humidity;BMP_temperature;BMP_pressure;BME280_temperature;BME280_humidity;BME280_pressure;Samples;Min_cycle;Max_cycle;Signal;HPM_P1;HPM_P2
2022/04/10 00:01:43;;;;;;;9.90;2.60;;;2.90;99.90;;;;;;5081829;28;20048;-66
2022/04/10 00:04:10;;;;;;;8.50;2.70;;;2.90;99.90;;;;;;5079746;28;20414;-65
2022/04/10 00:06:36;;;;;;;12.25;3.00;;;2.90;99.90;;;;;;5096619;28;20048;-65
2022/04/10 00:09:02;;;;;;;12.00;2.63;;;2.90;99.90;;;;;;5079283;28;20048;-57
2022/04/10 00:11:29;;;;;;;17.92;3.20;;;2.90;99.90;;;;;;5063132;28;20051;-57
2022/04/10 00:13:55;;;;;;;14.73;2.72;;;2.90;99.90;;;;;;5114900;27;20152;-58
2022/04/10 00:16:22;;;;;;;13.18;3.17;;;2.80;99.90;;;;;;5116499;27;20100;-57
2022/04/10 00:18:48;;;;;;;11.82;2.38;;;2.80;99.90;;;;;;5066876;28;20521;-58
2022/04/10 00:21:14;;;;;;;15.15;2.67;;;2.80;99.90;;;;;;5066587;28;20047;-57
2022/04/10 00:23:40;;;;;;;11.50;2.95;;;2.80;99.90;;;;;;5083469;28;20397;-57
2022/04/10 00:26:06;;;;;;;13.38;2.70;;;2.80;99.90;;;;;;5084961;28;20059;-58
2022/04/10 00:28:32;;;;;;;6.43;2.30;;;2.70;99.90;;;;;;5083177;28;20184;-57
2022/04/10 00:30:58;;;;;;;11.75;2.63;;;2.60;99.90;;;;;;5083182;28;20154;-57
2022/04/10 00:33:26;;;;;;;12.88;2.60;;;2.60;99.90;;;;;;5091142;28;20051;-57
2022/04/10 00:35:52;;;;;;;10.73;2.38;;;2.60;99.90;;;;;;5087540;28;20403;-58
2022/04/10 00:38:20;;;;;;;8.93;2.25;;;2.50;99.90;;;;;;5083400;28;20395;-58
2022/04/10 00:40:47;;;;;;;11.10;2.50;;;2.50;99.90;;;;;;5083689;28;20051;-59
2022/04/10 00:43:15;;;;;;;9.20;2.78;;;2.50;99.90;;;;;;5065907;28;20109;-58
2022/04/10 00:45:42;;;;;;;11.18;3.08;;;2.50;99.90;;;;;;5083205;28;20043;-66
2022/04/10 00:48:09;;;;;;;7.40;2.53;;;2.50;99.90;;;;;;5082774;28;20511;-66
2022/04/10 00:50:35;;;;;;;8.90;2.67;;;2.50;99.90;;;;;;5066091;28;20090;-66
2022/04/10 00:53:02;;;;;;;10.60;3.33;;;2.50;99.90;;;;;;5065687;28;20044;-66
2022/04/10 00:55:29;;;;;;;11.63;2.55;;;2.60;99.90;;;;;;5083100;28;20054;-57
2022/04/10 00:57:55;;;;;;;10.43;2.60;;;2.50;99.90;;;;;;5066281;28;20048;-58
2022/04/10 01:00:21;;;;;;;13.38;2.95;;;2.60;99.90;;;;;;5083462;28;20044;-58
2022/04/10 01:02:47;;;;;;;11.63;2.67;;;2.60;99.90;;;;;;5083036;28;20058;-58
2022/04/10 01:05:13;;;;;;;14.80;2.85;;;2.60;99.90;;;;;;5082959;28;20059;-59
2022/04/10 01:07:40;;;;;;;13.52;2.78;;;2.60;99.90;;;;;;5082585;28;20784;-58
2022/04/10 01:10:06;;;;;;;14.48;3.45;;;2.60;99.90;;;;;;5100070;28;20055;-58
2022/04/10 01:12:34;;;;;;;13.00;3.00;;;2.60;99.90;;;;;;5084820;28;20055;-57
2022/04/10 01:15:05;;;;;;;12.23;3.30;;;2.60;99.90;;;;;;5083628;28;20090;-57
2022/04/10 01:17:35;;;;;;;9.38;3.45;;;2.60;99.90;;;;;;5084656;28;20076;-57
2022/04/10 01:20:03;;;;;;;13.48;2.50;;;2.60;99.90;;;;;;5081909;28;20044;-57
2022/04/10 01:22:35;;;;;;;13.23;3.00;;;2.60;99.90;;;;;;5116154;27;20133;-58
2022/04/10 01:25:06;;;;;;;15.38;3.15;;;2.60;99.90;;;;;;5062081;28;20062;-58
2022/04/10 01:27:40;;;;;;;17.80;3.30;;;2.60;99.90;;;;;;5062208;28;20053;-58
2022/04/10 01:30:10;;;;;;;18.27;3.58;;;2.60;99.90;;;;;;5061800;28;20048;-59
2022/04/10 01:32:36;;;;;;;11.90;2.72;;;2.60;99.90;;;;;;5045496;28;20052;-66
2022/04/10 01:35:04;;;;;;;13.00;3.13;;;2.60;99.90;;;;;;5061919;28;20048;-67
2022/04/10 01:37:33;;;;;;;14.23;3.33;;;2.60;99.90;;;;;;5061552;28;20052;-67
2022/04/10 01:40:00;;;;;;;12.95;3.22;;;2.60;99.90;;;;;;5045014;28;20399;-67
2022/04/10 01:42:26;;;;;;;14.32;3.53;;;2.60;99.90;;;;;;5029056;28;20060;-66
2022/04/10 01:44:52;;;;;;;15.13;3.03;;;2.50;99.90;;;;;;5029768;28;20072;-66
2022/04/10 01:47:20;;;;;;;11.75;3.22;;;2.50;99.90;;;;;;5045697;28;20167;-58
2022/04/10 01:49:46;;;;;;;14.27;3.25;;;2.50;99.90;;;;;;5061934;28;20393;-58
2022/04/10 01:52:12;;;;;;;20.92;3.80;;;2.50;99.90;;;;;;5028130;28;20088;-58
2022/04/10 01:54:38;;;;;;;13.70;4.35;;;2.40;99.90;;;;;;5045517;28;20087;-58
2022/04/10 01:57:07;;;;;;;14.43;2.83;;;2.40;99.90;;;;;;5047771;28;20044;-58
2022/04/10 01:59:34;;;;;;;12.27;3.13;;;2.30;99.90;;;;;;5061448;28;20056;-58
2022/04/10 02:02:01;;;;;;;18.10;3.83;;;2.30;99.90;;;;;;5078176;28;20143;-66
2022/04/10 02:04:28;;;;;;;16.85;3.97;;;2.20;99.90;;;;;;5044885;28;20074;-66
2022/04/10 02:06:54;;;;;;;13.07;3.80;;;2.20;99.90;;;;;;5045502;28;20052;-58
2022/04/10 02:09:21;;;;;;;19.33;3.55;;;2.20;99.90;;;;;;5078802;28;20095;-57
2022/04/10 02:11:49;;;;;;;16.85;3.50;;;2.10;99.90;;;;;;5095708;28;20052;-58
2022/04/10 02:14:16;;;;;;;12.32;3.67;;;2.10;99.90;;;;;;5062388;28;20137;-58
2022/04/10 02:16:44;;;;;;;11.25;4.10;;;2.00;99.90;;;;;;5061859;28;20049;-58
2022/04/10 02:19:10;;;;;;;11.10;3.28;;;2.10;99.90;;;;;;5078473;28;20391;-65
2022/04/10 02:21:37;;;;;;;17.00;3.42;;;2.00;99.90;;;;;;5062147;28;20078;-57
2022/04/10 02:24:03;;;;;;;11.85;3.10;;;2.00;99.90;;;;;;5077654;28;20048;-58
2022/04/10 02:26:29;;;;;;;15.65;3.00;;;2.00;99.90;;;;;;5062868;28;20048;-58
2022/04/10 02:28:56;;;;;;;12.80;3.55;;;1.90;99.90;;;;;;5094995;28;20058;-58
2022/04/10 02:31:22;;;;;;;14.30;3.25;;;2.00;99.90;;;;;;5077339;28;20052;-57
2022/04/10 02:33:48;;;;;;;17.30;3.75;;;2.00;99.90;;;;;;5077413;28;20079;-65
2022/04/10 02:36:19;;;;;;;14.63;3.38;;;2.00;99.90;;;;;;5027358;28;20077;-65
2022/04/10 02:38:45;;;;;;;18.42;3.80;;;2.00;99.90;;;;;;5077311;28;20048;-65
2022/04/10 02:41:11;;;;;;;14.77;3.65;;;2.00;99.90;;;;;;5060053;28;20058;-65
2022/04/10 02:43:40;;;;;;;12.60;3.17;;;2.00;99.90;;;;;;5062456;28;20101;-65
2022/04/10 02:46:07;;;;;;;15.00;3.35;;;2.00;99.90;;;;;;5043554;28;20128;-67
2022/04/10 02:48:39;;;;;;;12.60;3.60;;;2.00;99.90;;;;;;5051034;28;20052;-66
2022/04/10 02:51:08;;;;;;;12.98;2.80;;;2.00;99.90;;;;;;5059960;28;20440;-65
2022/04/10 02:53:34;;;;;;;11.20;3.10;;;2.00;99.90;;;;;;5044219;28;20139;-66
2022/04/10 02:56:01;;;;;;;13.40;3.22;;;1.90;99.90;;;;;;5094452;28;20905;-66
2022/04/10 02:58:45;;;;;;;12.98;3.00;;;1.90;99.90;;;;;;5074681;28;20070;-66
2022/04/10 03:01:30;;;;;;;18.20;3.97;;;1.90;99.90;;;;;;5060426;28;20059;-58
2022/04/10 03:04:18;;;;;;;10.52;3.38;;;1.90;99.90;;;;;;5062024;28;20514;-66
2022/04/10 03:07:03;;;;;;;16.08;3.33;;;1.90;99.90;;;;;;5075111;28;20537;-66
2022/04/10 03:09:48;;;;;;;14.98;3.15;;;1.90;99.90;;;;;;5061087;28;20094;-66
2022/04/10 03:12:32;;;;;;;12.13;3.10;;;1.90;99.90;;;;;;5046381;28;20157;-67
2022/04/10 03:15:17;;;;;;;10.93;2.72;;;1.90;99.90;;;;;;5061837;28;20056;-66
2022/04/10 03:18:01;;;;;;;13.27;3.08;;;1.90;99.90;;;;;;5060262;28;20082;-66
2022/04/10 03:20:46;;;;;;;12.10;3.53;;;1.90;99.90;;;;;;5080651;28;20055;-67
2022/04/10 03:23:32;;;;;;;17.08;3.88;;;1.90;99.90;;;;;;5065585;28;20062;-66
2022/04/10 03:26:16;;;;;;;17.75;3.67;;;1.90;99.90;;;;;;5051960;28;20655;-67
2022/04/10 03:29:02;;;;;;;12.88;3.00;;;2.00;99.90;;;;;;5080039;28;20394;-66
2022/04/10 03:31:47;;;;;;;14.15;3.05;;;2.00;99.90;;;;;;5080648;28;20279;-58
2022/04/10 03:34:32;;;;;;;9.93;3.22;;;2.10;99.90;;;;;;5067201;28;20042;-58
2022/04/10 03:37:17;;;;;;;17.73;3.47;;;2.10;99.90;;;;;;5068346;28;20512;-58
2022/04/10 03:40:04;;;;;;;14.40;2.97;;;2.20;99.90;;;;;;5074257;28;20049;-58
2022/04/10 03:42:49;;;;;;;12.20;2.80;;;2.20;99.90;;;;;;5046641;28;20040;-58
2022/04/10 03:45:34;;;;;;;15.35;3.38;;;2.30;99.90;;;;;;5059927;28;20140;-57
2022/04/10 03:48:18;;;;;;;21.40;3.33;;;2.30;99.90;;;;;;5062158;28;20049;-57
2022/04/10 03:51:03;;;;;;;14.10;3.17;;;2.40;99.90;;;;;;5063672;28;20044;-58
2022/04/10 03:53:48;;;;;;;14.38;4.07;;;2.50;99.90;;;;;;5063995;28;20082;-58
2022/04/10 03:56:35;;;;;;;12.30;3.00;;;2.60;99.90;;;;;;5054797;28;20105;-58
2022/04/10 03:59:20;;;;;;;11.93;3.25;;;2.50;99.90;;;;;;5066768;28;20404;-58
2022/04/10 04:02:05;;;;;;;10.13;2.33;;;2.40;99.90;;;;;;5065824;28;20462;-68
2022/04/10 04:04:51;;;;;;;11.75;2.72;;;2.30;99.90;;;;;;5079283;28;20056;-69
2022/04/10 04:07:36;;;;;;;13.75;2.42;;;2.30;99.90;;;;;;5079513;28;20040;-69
2022/04/10 04:10:21;;;;;;;9.70;2.90;;;2.30;99.90;;;;;;5064347;28;20053;-69
2022/04/10 04:13:06;;;;;;;9.05;2.10;;;2.20;99.90;;;;;;5078262;28;20131;-59
2022/04/10 04:15:51;;;;;;;9.02;2.35;;;2.20;99.90;;;;;;5063858;28;20403;-60
2022/04/10 04:18:38;;;;;;;6.63;1.73;;;2.20;99.90;;;;;;5050714;28;20044;-59
2022/04/10 04:21:24;;;;;;;10.70;2.30;;;2.10;99.90;;;;;;5083265;28;20056;-59
2022/04/10 04:24:09;;;;;;;7.25;2.00;;;2.10;99.90;;;;;;5083587;28;20071;-59
2022/04/10 04:26:54;;;;;;;8.98;2.33;;;2.20;99.90;;;;;;5069723;28;20048;-70
2022/04/10 04:29:39;;;;;;;8.40;1.83;;;2.20;99.90;;;;;;5068542;28;20036;-59
2022/04/10 04:32:24;;;;;;;8.48;2.65;;;2.30;99.90;;;;;;5083194;28;20422;-59
2022/04/10 04:35:10;;;;;;;10.55;2.05;;;2.30;99.90;;;;;;5083543;28;20044;-58
2022/04/10 04:37:57;;;;;;;8.70;1.80;;;2.30;99.90;;;;;;5084119;28;20131;-58
2022/04/10 04:40:42;;;;;;;6.30;1.75;;;2.20;99.90;;;;;;5069272;28;20538;-58
2022/04/10 04:43:27;;;;;;;9.70;1.88;;;2.20;99.90;;;;;;5084020;28;20040;-59
2022/04/10 04:46:12;;;;;;;6.78;1.85;;;2.20;99.90;;;;;;5069181;28;20052;-58
2022/04/10 04:48:57;;;;;;;10.13;2.40;;;2.20;99.90;;;;;;5063366;28;20051;-59
2022/04/10 04:51:41;;;;;;;8.20;2.15;;;2.10;99.90;;;;;;5062755;28;20087;-59
2022/04/10 04:54:27;;;;;;;7.63;2.15;;;2.10;99.90;;;;;;5063344;28;20048;-59
2022/04/10 04:57:13;;;;;;;6.00;1.85;;;2.10;99.90;;;;;;5064003;28;20510;-59
2022/04/10 05:00:00;;;;;;;6.78;1.75;;;2.00;99.90;;;;;;5062205;28;20047;-59
2022/04/10 05:02:45;;;;;;;9.77;2.10;;;2.00;99.90;;;;;;5063203;28;20080;-59
2022/04/10 05:05:30;;;;;;;5.35;1.70;;;2.10;99.90;;;;;;5080018;28;20082;-58
2022/04/10 05:08:22;;;;;;;6.82;1.92;;;2.00;99.90;;;;;;5070526;28;20312;-58
2022/04/10 05:11:10;;;;;;;8.82;2.08;;;2.00;99.90;;;;;;5068674;28;20055;-58
2022/04/10 05:13:55;;;;;;;5.60;2.40;;;2.00;99.90;;;;;;5084768;28;20044;-68
2022/04/10 05:16:40;;;;;;;12.60;2.25;;;2.00;99.90;;;;;;5068360;28;20094;-68
2022/04/10 05:19:25;;;;;;;6.32;2.22;;;2.10;99.90;;;;;;5068865;28;20479;-69
2022/04/10 05:22:11;;;;;;;14.35;2.58;;;2.10;99.90;;;;;;5053320;28;20085;-59
2022/04/10 05:25:01;;;;;;;10.20;2.83;;;2.20;99.90;;;;;;5068955;28;20566;-68
2022/04/10 05:27:46;;;;;;;12.70;2.47;;;2.20;99.90;;;;;;5082897;28;20145;-68
2022/04/10 05:30:34;;;;;;;11.93;3.30;;;2.20;99.90;;;;;;5068228;28;20055;-68
2022/04/10 05:33:18;;;;;;;8.43;2.60;;;2.30;99.90;;;;;;5081925;28;20059;-68
2022/04/10 05:36:05;;;;;;;10.02;2.78;;;2.40;99.90;;;;;;5054604;28;20040;-59
2022/04/10 05:38:52;;;;;;;7.05;2.92;;;2.50;99.90;;;;;;5054476;28;20047;-59
2022/04/10 05:41:40;;;;;;;13.90;2.75;;;2.60;99.90;;;;;;5068378;28;20051;-58
2022/04/10 05:44:29;;;;;;;9.18;2.50;;;2.70;99.90;;;;;;5068138;28;20055;-60
2022/04/10 05:47:14;;;;;;;8.65;2.58;;;2.90;99.90;;;;;;5082542;28;20052;-58
2022/04/10 05:49:59;;;;;;;10.65;2.33;;;3.10;99.90;;;;;;5068495;28;20545;-58
2022/04/10 05:52:47;;;;;;;6.95;2.47;;;3.20;99.90;;;;;;5082194;28;20499;-68
2022/04/10 05:55:32;;;;;;;8.55;1.95;;;3.40;99.90;;;;;;5053705;28;20442;-58
2022/04/10 05:58:23;;;;;;;7.47;1.90;;;3.50;99.90;;;;;;5081608;28;20058;-59
2022/04/10 06:01:08;;;;;;;7.43;2.05;;;3.70;99.90;;;;;;5067039;28;20074;-59
2022/04/10 06:03:53;;;;;;;5.30;1.80;;;3.60;99.90;;;;;;5096185;28;20055;-59
2022/04/10 06:06:37;;;;;;;7.88;2.35;;;3.40;99.90;;;;;;5053132;28;20052;-59
2022/04/10 06:09:33;;;;;;;4.45;1.60;;;3.30;99.90;;;;;;5081626;28;20047;-59
2022/04/10 06:12:18;;;;;;;6.90;1.98;;;3.20;99.90;;;;;;5079919;28;20040;-59
2022/04/10 06:15:06;;;;;;;9.13;2.03;;;3.20;99.90;;;;;;5082376;28;20052;-67
2022/04/10 06:17:35;;;;;;;7.47;2.20;;;3.20;99.90;;;;;;5065126;28;20048;-67
2022/04/10 06:20:01;;;;;;;5.80;1.75;;;3.30;99.90;;;;;;5082581;28;20476;-69
2022/04/10 06:22:30;;;;;;;5.18;1.60;;;3.50;99.90;;;;;;5082460;28;20490;-67
2022/04/10 06:24:57;;;;;;;6.75;2.20;;;3.70;99.90;;;;;;5065239;28;20066;-67
2022/04/10 06:27:24;;;;;;;8.18;1.55;;;4.00;99.90;;;;;;5082122;28;20059;-67
2022/04/10 06:29:50;;;;;;;3.85;1.40;;;4.20;99.90;;;;;;5070087;28;20059;-68
2022/04/10 06:32:17;;;;;;;7.50;1.77;;;4.40;99.90;;;;;;5043615;28;20060;-67
2022/04/10 06:34:44;;;;;;;5.30;1.40;;;4.50;99.90;;;;;;5061050;28;20057;-67
2022/04/10 06:37:12;;;;;;;5.53;1.75;;;4.50;99.90;;;;;;5079781;28;20062;-67
2022/04/10 06:39:39;;;;;;;9.00;1.58;;;4.60;99.90;;;;;;5086794;28;20052;-68
2022/04/10 06:42:06;;;;;;;4.15;1.40;;;4.70;99.90;;;;;;5081047;28;20062;-59
2022/04/10 06:44:44;;;;;;;5.40;1.45;;;4.90;99.90;;;;;;5064504;28;20809;-59
2022/04/10 06:47:36;;;;;;;7.43;1.65;;;5.10;99.90;;;;;;5064158;28;20048;-59
2022/04/10 06:50:04;;;;;;;7.88;1.73;;;5.40;99.90;;;;;;5045002;28;20048;-59
2022/04/10 06:52:31;;;;;;;4.75;1.30;;;5.50;99.90;;;;;;5044374;28;20083;-59
2022/04/10 06:54:57;;;;;;;9.68;1.77;;;5.50;99.90;;;;;;5044125;28;20048;-67
2022/04/10 06:57:24;;;;;;;7.95;1.65;;;5.60;99.90;;;;;;5043705;28;20060;-67
2022/04/10 06:59:50;;;;;;;7.07;1.70;;;5.70;99.90;;;;;;5044097;28;20075;-66
2022/04/10 07:02:17;;;;;;;6.03;1.70;;;5.90;99.90;;;;;;5027132;28;20048;-66
2022/04/10 07:04:47;;;;;;;6.53;1.30;;;6.20;99.90;;;;;;5042533;28;20049;-66
2022/04/10 07:07:14;;;;;;;4.72;1.45;;;6.20;99.90;;;;;;5043460;28;20473;-65
2022/04/10 07:09:40;;;;;;;5.38;1.25;;;6.40;99.90;;;;;;5061857;28;20487;-65
2022/04/10 07:12:06;;;;;;;5.93;1.75;;;6.50;99.90;;;;;;5044130;28;20045;-67
2022/04/10 07:14:48;;;;;;;;;;;6.70;99.90;;;;;;5013632;28;20047;-65
2022/04/10 07:17:14;;;;;;;9.23;1.75;;;6.90;99.90;;;;;;5060565;28;19994;-60
2022/04/10 07:19:41;;;;;;;8.32;1.80;;;7.00;99.90;;;;;;5052536;28;20100;-65
2022/04/10 07:24:52;;;;;;;8.13;2.35;;;6.70;99.90;;;;;;5030641;28;20051;-65
2022/04/10 07:27:18;;;;;;;6.57;2.78;;;6.50;99.90;;;;;;5063280;28;20049;-64
2022/04/10 07:29:58;;;;;;;7.85;1.90;;;6.60;99.90;;;;;;5061375;28;20496;-64
2022/04/10 07:32:30;;;;;;;7.57;1.90;;;6.60;99.90;;;;;;5059687;28;20067;-67
2022/04/10 07:35:06;;;;;;;10.70;2.05;;;6.90;99.90;;;;;;5060511;28;20060;-64
2022/04/10 07:37:54;;;;;;;7.53;1.90;;;7.20;99.90;;;;;;5094342;28;20166;-65
2022/04/10 07:40:22;;;;;;;7.28;2.35;;;7.80;99.90;;;;;;5059878;28;20187;-64
2022/04/10 07:42:49;;;;;;;11.38;3.60;;;8.20;99.90;;;;;;5059991;28;20052;-65
2022/04/10 07:48:15;;;;;;;11.70;2.92;;;7.90;99.90;;;;;;5042983;28;20490;-63
2022/04/10 07:50:41;;;;;;;11.25;1.92;;;7.70;99.90;;;;;;5060294;28;20056;-63
2022/04/10 07:53:10;;;;;;;8.18;2.40;;;7.40;99.90;;;;;;5059666;28;20044;-57
2022/04/10 07:55:43;;;;;;;8.02;2.28;;;7.50;99.90;;;;;;5044597;28;20459;-58
2022/04/10 07:58:10;;;;;;;8.98;1.70;;;7.90;99.90;;;;;;5059862;28;20056;-58
2022/04/10 08:00:37;;;;;;;10.27;2.13;;;7.80;99.90;;;;;;5043870;28;20052;-58
2022/04/10 08:03:06;;;;;;;6.70;1.90;;;7.90;99.90;;;;;;5060123;28;20083;-58
2022/04/10 08:05:46;;;;;;;8.43;2.13;;;8.10;99.90;;;;;;5043130;28;20055;-65
2022/04/10 08:08:17;;;;;;;6.80;1.88;;;8.60;99.90;;;;;;5043769;28;20052;-58
2022/04/10 08:10:43;;;;;;;8.10;2.20;;;9.30;99.90;;;;;;5061747;28;20048;-58
2022/04/10 08:13:09;;;;;;;6.43;1.98;;;9.70;99.90;;;;;;5082032;28;20056;-58
2022/04/10 08:15:38;;;;;;;8.82;1.73;;;9.90;99.90;;;;;;5082358;28;20044;-58
2022/04/10 08:18:05;;;;;;;6.88;2.00;;;10.00;99.90;;;;;;5080206;28;20589;-58
2022/04/10 08:20:31;;;;;;;6.60;1.80;;;10.40;99.90;;;;;;5062709;28;20062;-58
2022/04/10 08:22:59;;;;;;;7.65;1.85;;;9.50;99.90;;;;;;5063435;28;20051;-64
2022/04/10 08:25:26;;;;;;;7.93;1.85;;;9.00;99.90;;;;;;5082307;28;20055;-65
2022/04/10 08:27:52;;;;;;;8.30;2.05;;;8.70;99.90;;;;;;5060906;28;20525;-64
2022/04/10 08:30:18;;;;;;;8.90;2.15;;;8.50;99.90;;;;;;5061663;28;20101;-64
2022/04/10 08:32:44;;;;;;;8.75;1.98;;;8.40;99.90;;;;;;5060368;28;20139;-64
2022/04/10 08:35:12;;;;;;;10.95;2.33;;;8.70;99.90;;;;;;5064068;28;20548;-64
2022/04/10 08:37:39;;;;;;;6.20;1.80;;;9.30;99.90;;;;;;5063613;28;20135;-65
2022/04/10 08:40:06;;;;;;;8.82;1.70;;;9.60;99.90;;;;;;5064887;28;20050;-64
2022/04/10 08:42:32;;;;;;;11.25;2.53;;;10.00;99.90;;;;;;5064391;28;20048;-64
2022/04/10 08:44:59;;;;;;;6.85;1.83;;;10.70;99.90;;;;;;5046636;28;20321;-58
2022/04/10 08:47:26;;;;;;;6.65;2.00;;;10.90;99.90;;;;;;5062861;28;20058;-58
2022/04/10 08:49:54;;;;;;;9.80;2.50;;;10.80;99.90;;;;;;5062783;28;20052;-58
2022/04/10 08:52:21;;;;;;;10.00;1.60;;;11.40;99.90;;;;;;5046575;28;20052;-58
2022/04/10 08:54:49;;;;;;;9.07;2.15;;;11.20;99.90;;;;;;5046563;28;20040;-58
2022/04/10 08:57:16;;;;;;;12.25;2.95;;;10.60;99.90;;;;;;5064412;28;20463;-57
2022/04/10 08:59:42;;;;;;;10.73;2.63;;;9.60;99.90;;;;;;5046078;28;20040;-58
2022/04/10 09:02:18;;;;;;;9.93;2.17;;;9.00;99.90;;;;;;5064985;28;20118;-57
2022/04/10 09:04:44;;;;;;;11.10;2.22;;;8.30;99.90;;;;;;5065133;28;20062;-59
2022/04/10 09:07:12;;;;;;;6.93;1.85;;;7.90;99.90;;;;;;5077673;28;20505;-58
2022/04/10 09:09:42;;;;;;;8.52;2.13;;;7.90;99.90;;;;;;5084304;28;20059;-60
2022/04/10 09:12:09;;;;;;;6.75;2.38;;;8.70;99.90;;;;;;5079732;28;20052;-60
2022/04/10 09:14:40;;;;;;;9.18;2.20;;;9.50;99.90;;;;;;5080653;28;20044;-60
2022/04/10 09:17:13;;;;;;;6.18;2.00;;;10.40;99.90;;;;;;5082577;28;20040;-60
2022/04/10 09:19:51;;;;;;;8.98;2.22;;;11.10;99.90;;;;;;5064658;28;20366;-62
2022/04/10 09:22:38;;;;;;;8.77;2.45;;;11.70;99.90;;;;;;5082247;28;20079;-60
2022/04/10 09:25:13;;;;;;;7.05;1.90;;;11.30;99.90;;;;;;5049157;28;20056;-67
2022/04/10 09:27:47;;;;;;;9.65;2.13;;;11.30;99.90;;;;;;5083103;28;20496;-66
2022/04/10 09:30:15;;;;;;;10.07;1.98;;;12.00;99.90;;;;;;5083842;28;20036;-67
2022/04/10 09:32:52;;;;;;;5.90;1.90;;;12.20;99.90;;;;;;5065612;28;20526;-67
2022/04/10 09:35:23;;;;;;;9.30;1.98;;;12.40;99.90;;;;;;5081864;28;20495;-66
2022/04/10 09:37:53;;;;;;;6.30;1.45;;;13.10;99.90;;;;;;5081071;28;20807;-67
2022/04/10 09:40:39;;;;;;;7.38;1.92;;;13.40;99.90;;;;;;5085906;28;20082;-68
2022/04/10 09:43:12;;;;;;;8.43;1.75;;;13.50;67.10;;;;;;5081928;28;20067;-67
2022/04/10 09:45:40;;;;;;;9.88;1.85;;;13.70;58.10;;;;;;5082970;28;20391;-66
2022/04/10 09:48:29;;;;;;;6.10;1.45;;;13.10;57.20;;;;;;5083338;28;20531;-67
2022/04/10 09:51:01;;;;;;;6.78;1.52;;;13.20;58.50;;;;;;5082380;28;20513;-67
2022/04/10 09:53:28;;;;;;;7.25;1.42;;;12.80;65.50;;;;;;5064230;28;20523;-67
2022/04/10 09:55:56;;;;;;;4.65;1.38;;;12.80;69.70;;;;;;5081554;28;20058;-66
2022/04/10 09:58:23;;;;;;;7.90;1.50;;;12.80;61.60;;;;;;5081695;28;20376;-66
2022/04/10 10:00:54;;;;;;;7.55;1.95;;;13.40;63.20;;;;;;5082242;28;20051;-67
2022/04/10 10:03:36;;;;;;;7.82;1.77;;;14.20;64.40;;;;;;5081719;28;20094;-67
2022/04/10 10:06:05;;;;;;;7.00;1.90;;;14.20;67.10;;;;;;5081412;28;20047;-67
2022/04/10 10:08:31;;;;;;;7.10;1.67;;;13.90;60.10;;;;;;5081374;28;20055;-67
2022/04/10 10:11:00;;;;;;;8.48;1.85;;;13.70;65.30;;;;;;5080217;28;20077;-67
2022/04/10 10:13:27;;;;;;;7.05;1.55;;;12.80;64.20;;;;;;5083022;28;20147;-67
2022/04/10 10:15:55;;;;;;;6.57;1.65;;;11.80;63.60;;;;;;5081223;28;20427;-67
2022/04/10 10:18:24;;;;;;;4.43;1.40;;;11.20;92.00;;;;;;5031405;28;20055;-67
2022/04/10 10:20:50;;;;;;;7.00;1.38;;;10.80;81.90;;;;;;5081891;28;20143;-67
2022/04/10 10:23:19;;;;;;;7.90;1.73;;;10.40;96.10;;;;;;5081739;28;20035;-67
2022/04/10 10:25:54;;;;;;;7.30;1.88;;;10.70;94.50;;;;;;5064673;28;20058;-67
2022/04/10 10:28:55;;;;;;;5.82;1.50;;;11.60;97.50;;;;;;5064660;28;20069;-60
2022/04/10 10:31:39;;;;;;;6.78;1.60;;;12.40;89.00;;;;;;5064086;28;20502;-61
2022/04/10 10:34:08;;;;;;;6.95;2.00;;;13.50;75.90;;;;;;5064509;28;20056;-61
2022/04/10 10:36:35;;;;;;;7.20;1.60;;;13.80;74.60;;;;;;5082710;28;20097;-60
2022/04/10 10:39:05;;;;;;;9.50;1.80;;;14.30;64.70;;;;;;5082082;28;20046;-60
2022/04/10 10:41:36;;;;;;;6.55;1.90;;;14.30;59.50;;;;;;5081869;28;20047;-60
2022/04/10 10:44:26;;;;;;;7.55;1.70;;;14.20;57.80;;;;;;5081847;28;20036;-61
2022/04/10 10:47:02;;;;;;;8.02;1.92;;;14.40;56.30;;;;;;5077923;28;20724;-60
2022/04/10 10:49:49;;;;;;;8.27;2.15;;;13.80;60.90;;;;;;5070428;28;20552;-60
2022/04/10 10:52:16;;;;;;;6.82;1.95;;;14.70;60.90;;;;;;5072190;28;20043;-61
2022/04/10 10:54:58;;;;;;;8.93;2.80;;;14.30;56.60;;;;;;5081521;28;20051;-58
2022/04/10 10:57:28;;;;;;;7.25;2.25;;;14.10;60.50;;;;;;5078954;28;20529;-55
2022/04/10 11:00:18;;;;;;;11.93;4.43;;;13.20;59.50;;;;;;5071514;28;20048;-55
2022/04/10 11:02:53;;;;;;;15.93;10.27;;;12.70;62.40;;;;;;5078764;28;20126;-54
2022/04/10 11:05:24;;;;;;;10.25;2.40;;;12.50;63.30;;;;;;5076008;28;20075;-57
2022/04/10 11:08:14;;;;;;;11.23;4.82;;;13.40;62.90;;;;;;5078556;28;20048;-57
2022/04/10 11:11:03;;;;;;;12.25;5.38;;;13.80;55.00;;;;;;5076919;28;20079;-59
2022/04/10 11:13:42;;;;;;;7.15;1.50;;;14.20;54.00;;;;;;5089042;28;20453;-57
2022/04/10 11:16:13;;;;;;;7.60;3.17;;;15.10;54.10;;;;;;5076387;28;20047;-57
2022/04/10 11:18:49;;;;;;;8.52;1.90;;;14.20;55.40;;;;;;5057300;28;20407;-57
2022/04/10 11:21:20;;;;;;;8.32;1.88;;;14.00;56.10;;;;;;5077778;28;20406;-57
2022/04/10 11:23:48;;;;;;;8.93;2.85;;;14.80;55.00;;;;;;5076681;28;20051;-66
2022/04/10 11:26:16;;;;;;;6.85;2.17;;;13.80;54.40;;;;;;5079034;28;20566;-57
2022/04/10 11:29:05;;;;;;;9.57;3.30;;;12.80;55.80;;;;;;5078597;28;20036;-56
2022/04/10 11:31:38;;;;;;;8.35;3.35;;;12.40;57.10;;;;;;5078000;28;20044;-56
2022/04/10 11:34:09;;;;;;;5.00;1.55;;;13.40;57.50;;;;;;5077569;28;20521;-58
2022/04/10 11:36:48;;;;;;;9.23;1.85;;;14.20;56.30;;;;;;5077932;28;20582;-57
2022/04/10 11:39:16;;;;;;;5.35;1.67;;;14.90;54.40;;;;;;5076481;28;20086;-57
2022/04/10 11:41:43;;;;;;;7.45;2.05;;;14.20;53.00;;;;;;5068872;28;20912;-57
2022/04/10 11:44:09;;;;;;;6.00;1.55;;;13.90;60.20;;;;;;5077302;28;20044;-66
2022/04/10 11:46:37;;;;;;;5.53;2.00;;;12.70;59.00;;;;;;5075783;28;20052;-66
2022/04/10 11:49:03;;;;;;;5.95;1.30;;;12.40;63.10;;;;;;5072758;28;20403;-66
2022/04/10 11:51:29;;;;;;;9.00;1.90;;;12.20;73.80;;;;;;5075594;28;20048;-66
2022/04/10 11:53:59;;;;;;;5.15;1.50;;;12.10;82.50;;;;;;5072942;28;20054;-66
2022/04/10 11:56:26;;;;;;;5.60;1.65;;;11.80;82.10;;;;;;5102790;27;20790;-66
2022/04/10 11:58:52;;;;;;;4.72;1.40;;;12.50;87.50;;;;;;5075800;28;20074;-56
2022/04/10 12:01:21;;;;;;;10.20;1.80;;;13.40;96.60;;;;;;5077152;28;20479;-56
2022/04/10 12:03:51;;;;;;;6.55;1.73;;;13.50;67.90;;;;;;5077798;28;20055;-56
2022/04/10 12:06:20;;;;;;;5.72;1.50;;;14.10;64.50;;;;;;5057732;28;20059;-67
2022/04/10 12:08:51;;;;;;;4.57;1.40;;;14.50;55.80;;;;;;5062299;28;20048;-67
2022/04/10 12:11:17;;;;;;;7.18;1.30;;;15.00;56.70;;;;;;5078001;28;20044;-67
2022/04/10 12:13:43;;;;;;;5.82;1.90;;;14.70;53.10;;;;;;5044825;28;20133;-56
2022/04/10 12:16:16;;;;;;;8.73;1.90;;;14.30;56.00;;;;;;5076933;28;20040;-67
2022/04/10 12:18:50;;;;;;;4.75;1.05;;;13.50;59.30;;;;;;5055563;28;20044;-62
2022/04/10 12:21:17;;;;;;;5.82;2.30;;;13.40;59.40;;;;;;5075239;28;20483;-56
2022/04/10 12:23:43;;;;;;;5.82;1.73;;;14.10;59.10;;;;;;5078261;28;20862;-55
2022/04/10 12:26:10;;;;;;;4.85;1.40;;;14.80;56.00;;;;;;5079328;28;20528;-57
2022/04/10 12:28:38;;;;;;;8.10;2.03;;;14.20;49.50;;;;;;5078889;28;20393;-57
2022/04/10 12:31:05;;;;;;;10.80;6.13;;;14.20;52.30;;;;;;5080409;28;20663;-56
2022/04/10 12:33:32;;;;;;;8.25;4.10;;;14.00;53.60;;;;;;5096955;28;20566;-56
2022/04/10 12:35:59;;;;;;;5.60;1.63;;;13.50;52.00;;;;;;5080634;28;20036;-57
2022/04/10 12:38:30;;;;;;;4.88;1.52;;;14.10;53.20;;;;;;5082220;28;20044;-58
2022/04/10 12:41:06;;;;;;;6.75;2.63;;;14.40;51.20;;;;;;5083178;28;20074;-57
2022/04/10 12:43:32;;;;;;;3.42;1.45;;;15.40;51.10;;;;;;5066417;28;20059;-57
2022/04/10 12:46:31;;;;;;;7.32;2.83;;;15.00;47.70;;;;;;5082666;28;20039;-56
2022/04/10 12:49:27;;;;;;;5.82;1.48;;;14.50;49.30;;;;;;5082669;28;20040;-56
2022/04/10 12:51:54;;;;;;;6.90;2.10;;;13.70;51.90;;;;;;5075906;28;20597;-57
2022/04/10 12:54:46;;;;;;;6.20;1.60;;;13.10;53.50;;;;;;5080913;28;20103;-56
2022/04/10 12:57:27;;;;;;;4.15;1.50;;;13.40;54.10;;;;;;5081016;28;20039;-57
2022/04/10 12:59:54;;;;;;;3.78;1.15;;;14.20;52.10;;;;;;5062015;28;20403;-60
2022/04/10 13:02:24;;;;;;;5.82;1.40;;;14.80;51.40;;;;;;5081687;28;20063;-59
2022/04/10 13:04:57;;;;;;;3.03;1.17;;;15.30;49.40;;;;;;5081413;28;20071;-60
2022/04/10 13:07:24;;;;;;;4.07;1.23;;;15.60;49.10;;;;;;5064081;28;20146;-60
2022/04/10 13:10:11;;;;;;;4.53;1.50;;;16.10;47.30;;;;;;5031085;28;20136;-61
2022/04/10 13:12:39;;;;;;;4.70;1.10;;;16.50;50.10;;;;;;5074861;28;20081;-59
2022/04/10 13:15:06;;;;;;;4.32;1.35;;;15.70;44.60;;;;;;5078804;28;20048;-59
2022/04/10 13:17:38;;;;;;;4.50;1.30;;;15.90;44.80;;;;;;5075449;28;20036;-59
2022/04/10 13:20:05;;;;;;;3.38;1.27;;;15.90;44.30;;;;;;5081262;28;20432;-58
2022/04/10 13:22:36;;;;;;;4.43;1.20;;;16.40;45.20;;;;;;5060868;28;20056;-61
2022/04/10 13:25:03;;;;;;;4.18;1.00;;;15.70;45.10;;;;;;5063466;28;20048;-63
2022/04/10 13:27:30;;;;;;;5.80;1.42;;;16.60;46.10;;;;;;5081095;28;20048;-65
2022/04/10 13:29:57;;;;;;;4.60;1.13;;;15.80;45.80;;;;;;5079732;28;20059;-64